NA49 weather

Paul Airstrip
Rugby, North Dakota, United States

Public forecast

Using degrees Fahrenheit for public forecast. Weather courtesy of forecast.io.

METAR (pilot weather report)

Closest report is Rugby Municipal Airport, 2.1 nm (3.8 km) SE. Retrieved 2019/07/24 05:35 UTC (21 minutes ago):

KRUG 240535Z AUTO 15007KT 10SM CLR 19/16 A3011 RMK AO2

TAF (pilot weather forecast)

Forecast is more than 12 hours old.

Closest forecast is Devils Lake Regional Airport, 49.3 nm (91.3 km) ESE. Retrieved 2019/07/23 00:28 UTC (1 day ago):

TAF KDVL 232326Z 2400/2424 VRB05KT P6SM SCT250 FM240900 18007KT P6SM FEW250 FM241600 17012KT P6SM FEW250 FM241900 17014G22KT P6SM SCT060